Time;durP1;ratioP1;P1;durP2;ratioP2;P2;SDS_P1;SDS_P2;PMS_P1;PMS_P2;Temp;Humidity;BMP_temperature;BMP_pressure;BME280_temperature;BME280_humidity;BME280_pressure;Samples;Min_cycle;Max_cycle;Signal;HPM_P1;HPM_P2
2022/10/08 00:01:42;;;;;;;6.80;1.20;;;12.40;99.90;;;;;;4988596;28;20061;-35
2022/10/08 00:04:10;;;;;;;4.30;1.30;;;12.40;99.90;;;;;;4989894;28;20043;-34
2022/10/08 00:06:36;;;;;;;7.45;1.48;;;12.30;99.90;;;;;;4985153;28;20054;-34
2022/10/08 00:09:04;;;;;;;8.35;1.63;;;12.30;99.90;;;;;;4981237;28;20036;-34
2022/10/08 00:11:35;;;;;;;5.30;1.33;;;12.20;99.90;;;;;;4983357;28;20578;-35
2022/10/08 00:14:01;;;;;;;5.32;1.45;;;12.20;99.90;;;;;;4988952;28;20042;-34
2022/10/08 00:16:33;;;;;;;5.57;1.10;;;12.20;99.90;;;;;;4989781;28;20061;-35
2022/10/08 00:19:02;;;;;;;7.53;1.63;;;12.20;99.90;;;;;;4985099;28;20046;-34
2022/10/08 00:21:34;;;;;;;9.40;1.75;;;12.20;99.90;;;;;;4985889;28;20587;-35
2022/10/08 00:24:02;;;;;;;5.45;1.50;;;12.20;99.90;;;;;;4989213;28;20522;-35
2022/10/08 00:26:30;;;;;;;9.07;1.35;;;12.20;99.90;;;;;;4984153;28;20479;-35
2022/10/08 00:28:58;;;;;;;7.43;2.55;;;12.10;99.90;;;;;;4979417;28;20038;-35
2022/10/08 00:31:32;;;;;;;5.60;1.88;;;12.20;99.90;;;;;;4985172;28;20057;-35
2022/10/08 00:33:59;;;;;;;10.75;2.88;;;12.20;99.90;;;;;;4985235;28;20495;-35
2022/10/08 00:36:32;;;;;;;7.00;2.13;;;12.20;99.90;;;;;;4986781;28;20041;-34
2022/10/08 00:39:01;;;;;;;5.45;1.20;;;12.20;99.90;;;;;;4988965;28;20045;-35
2022/10/08 00:41:29;;;;;;;6.75;2.35;;;12.20;99.90;;;;;;4987354;28;20050;-34
2022/10/08 00:43:58;;;;;;;7.55;2.22;;;12.20;99.90;;;;;;4972210;28;20034;-35
2022/10/08 00:46:36;;;;;;;6.65;1.95;;;12.20;99.90;;;;;;4981631;28;20043;-34
2022/10/08 00:49:16;;;;;;;5.63;1.83;;;12.20;99.90;;;;;;4988783;28;20125;-35
2022/10/08 00:51:54;;;;;;;7.00;2.05;;;12.20;99.90;;;;;;4983733;28;20081;-36
2022/10/08 00:54:21;;;;;;;6.35;2.22;;;12.20;99.90;;;;;;4984767;28;20042;-36
2022/10/08 00:56:52;;;;;;;7.97;2.45;;;12.20;99.90;;;;;;4986452;28;20054;-36
2022/10/08 00:59:19;;;;;;;6.82;2.00;;;12.20;99.90;;;;;;4983264;28;20049;-35
2022/10/08 01:01:45;;;;;;;6.80;1.85;;;12.20;99.90;;;;;;4986050;28;20035;-35
2022/10/08 01:04:13;;;;;;;6.22;1.83;;;12.20;99.90;;;;;;4986776;28;20096;-36
2022/10/08 01:06:52;;;;;;;6.15;2.03;;;12.20;99.90;;;;;;4984385;28;20051;-35
2022/10/08 01:09:32;;;;;;;5.72;1.88;;;12.20;99.90;;;;;;4987544;28;20561;-35
2022/10/08 01:12:40;;;;;;;3.47;1.50;;;12.20;99.90;;;;;;4982759;28;20122;-35
2022/10/08 01:15:22;;;;;;;5.85;1.70;;;12.20;99.90;;;;;;4944635;28;20050;-35
2022/10/08 01:18:14;;;;;;;9.57;1.75;;;12.20;99.90;;;;;;4989538;28;20042;-35
2022/10/08 01:20:54;;;;;;;4.32;1.40;;;12.10;99.90;;;;;;4983739;28;20080;-35
2022/10/08 01:24:01;;;;;;;5.15;1.58;;;12.10;99.90;;;;;;4981275;28;20410;-35
2022/10/08 01:26:51;;;;;;;3.78;1.60;;;12.10;99.90;;;;;;4960315;28;20499;-35
2022/10/08 01:29:23;;;;;;;7.40;1.50;;;12.00;99.90;;;;;;4985138;28;20046;-36
2022/10/08 01:31:54;;;;;;;;;;;12.00;99.90;;;;;;4985523;28;20053;-36
2022/10/08 01:34:29;;;;;;;4.00;1.50;;;11.90;99.90;;;;;;4986085;28;19964;-36
2022/10/08 01:36:57;;;;;;;3.20;1.02;;;11.90;99.90;;;;;;4981499;28;20041;-36
2022/10/08 01:39:29;;;;;;;4.35;1.23;;;11.90;99.90;;;;;;4983438;28;20057;-35
2022/10/08 01:41:55;;;;;;;4.55;1.20;;;11.80;99.90;;;;;;4984603;28;20038;-35
2022/10/08 01:44:36;;;;;;;4.13;1.27;;;11.80;99.90;;;;;;4988827;28;20046;-35
2022/10/08 01:47:05;;;;;;;2.75;1.00;;;11.80;99.90;;;;;;4989682;28;20134;-34
2022/10/08 01:49:38;;;;;;;5.30;1.40;;;11.70;99.90;;;;;;4988791;28;20039;-35
2022/10/08 01:52:11;;;;;;;2.63;0.80;;;11.70;99.90;;;;;;4985844;28;20492;-34
2022/10/08 01:54:38;;;;;;;;;;;11.70;99.90;;;;;;4971623;28;20046;-35
2022/10/08 01:57:05;;;;;;;4.43;0.80;;;11.70;99.90;;;;;;4992924;28;19921;-34
2022/10/08 01:59:45;;;;;;;4.28;0.80;;;11.70;99.90;;;;;;4989816;28;20038;-35
2022/10/08 02:02:19;;;;;;;2.97;1.02;;;11.60;99.90;;;;;;4986114;28;20067;-34
2022/10/08 02:04:46;;;;;;;3.22;0.80;;;11.60;99.90;;;;;;4967410;28;20048;-35
2022/10/08 02:07:18;;;;;;;2.63;0.80;;;11.60;99.90;;;;;;4986500;28;20180;-35
2022/10/08 02:09:50;;;;;;;2.30;0.70;;;11.60;99.90;;;;;;4986878;28;20415;-36
2022/10/08 02:12:17;;;;;;;3.00;0.75;;;11.50;99.90;;;;;;4984078;28;20296;-35
2022/10/08 02:14:47;;;;;;;2.25;0.77;;;11.50;99.90;;;;;;4985831;28;20056;-35
2022/10/08 02:17:30;;;;;;;2.75;0.70;;;11.50;99.90;;;;;;4986179;28;20117;-35
2022/10/08 02:20:03;;;;;;;1.83;0.68;;;11.50;99.90;;;;;;4986097;28;20081;-35
2022/10/08 02:22:41;;;;;;;1.95;0.60;;;11.40;99.90;;;;;;4983780;28;20094;-35
2022/10/08 02:25:10;;;;;;;4.70;0.88;;;11.40;99.90;;;;;;4986467;28;20038;-35
2022/10/08 02:28:02;;;;;;;4.30;1.10;;;11.30;99.90;;;;;;4970556;28;20496;-35
2022/10/08 02:30:41;;;;;;;2.67;0.70;;;11.20;99.90;;;;;;4986951;28;20454;-34
2022/10/08 02:33:20;;;;;;;4.40;0.82;;;11.20;99.90;;;;;;4983404;28;20200;-35
2022/10/08 02:35:52;;;;;;;2.67;0.85;;;11.10;99.90;;;;;;4981605;28;20045;-35
2022/10/08 02:38:24;;;;;;;2.92;0.85;;;11.10;99.90;;;;;;4985323;28;20499;-35
2022/10/08 02:40:55;;;;;;;4.57;0.80;;;11.10;99.90;;;;;;4985996;28;20531;-35
2022/10/08 02:43:26;;;;;;;6.78;1.60;;;11.00;99.90;;;;;;4990483;28;20061;-35
2022/10/08 02:46:09;;;;;;;3.55;0.90;;;11.00;99.90;;;;;;4987421;28;20487;-35
2022/10/08 02:48:41;;;;;;;4.20;0.80;;;11.00;99.90;;;;;;4991450;28;20050;-35
2022/10/08 02:51:11;;;;;;;7.10;0.98;;;11.00;99.90;;;;;;4982456;28;20488;-35
2022/10/08 02:53:39;;;;;;;2.55;1.02;;;10.90;99.90;;;;;;4989345;28;20113;-35
2022/10/08 02:56:31;;;;;;;6.05;1.17;;;10.90;99.90;;;;;;4989396;28;20504;-35
2022/10/08 02:58:57;;;;;;;3.90;0.80;;;10.90;99.90;;;;;;4986838;28;20093;-36
2022/10/08 03:01:43;;;;;;;5.70;1.42;;;10.90;99.90;;;;;;4988340;28;20046;-38
2022/10/08 03:04:20;;;;;;;5.32;1.13;;;10.90;99.90;;;;;;4993268;28;20046;-35
2022/10/08 03:06:48;;;;;;;3.88;1.05;;;10.90;99.90;;;;;;4992474;28;20503;-35
2022/10/08 03:09:15;;;;;;;5.93;1.13;;;10.90;99.90;;;;;;4989297;28;20525;-35
2022/10/08 03:11:41;;;;;;;4.20;1.10;;;10.80;99.90;;;;;;4988481;28;20129;-36
2022/10/08 03:14:11;;;;;;;3.28;0.82;;;10.80;99.90;;;;;;4988279;28;20042;-37
2022/10/08 03:16:42;;;;;;;7.82;1.65;;;10.80;99.90;;;;;;4982888;28;20049;-36
2022/10/08 03:19:10;;;;;;;5.45;1.13;;;10.80;99.90;;;;;;4985426;28;20125;-34
2022/10/08 03:21:38;;;;;;;4.25;0.90;;;10.80;99.90;;;;;;4983458;28;20200;-34
2022/10/08 03:24:08;;;;;;;2.83;0.90;;;10.70;99.90;;;;;;4991446;28;20129;-35
2022/10/08 03:26:33;;;;;;;4.30;0.82;;;10.60;99.90;;;;;;4990177;28;20050;-35
2022/10/08 03:28:59;;;;;;;4.85;1.50;;;10.60;99.90;;;;;;4987026;28;20373;-35
2022/10/08 03:31:25;;;;;;;7.45;1.73;;;10.50;99.90;;;;;;4983392;28;20031;-35
2022/10/08 03:33:52;;;;;;;4.97;1.00;;;10.50;99.90;;;;;;4987301;28;20130;-35
2022/10/08 03:36:20;;;;;;;4.35;1.13;;;10.50;99.90;;;;;;4990376;28;20050;-35
2022/10/08 03:38:46;;;;;;;8.27;1.10;;;10.50;99.90;;;;;;4995678;28;20507;-35
2022/10/08 03:41:12;;;;;;;4.57;1.10;;;10.50;99.90;;;;;;4989925;28;20093;-34
2022/10/08 03:43:37;;;;;;;4.80;0.95;;;10.40;99.90;;;;;;4989230;28;20046;-35
2022/10/08 03:46:04;;;;;;;4.70;1.13;;;10.50;99.90;;;;;;4992728;28;20491;-35
2022/10/08 03:48:30;;;;;;;5.10;1.20;;;10.50;99.90;;;;;;4990051;28;22087;-36
2022/10/08 03:50:59;;;;;;;3.67;1.05;;;10.50;99.90;;;;;;4990102;28;20086;-35
2022/10/08 03:53:26;;;;;;;4.25;1.20;;;10.50;99.90;;;;;;4990629;28;20042;-35
2022/10/08 03:55:53;;;;;;;7.57;1.52;;;10.50;99.90;;;;;;4989615;28;20060;-35
2022/10/08 03:58:19;;;;;;;4.80;1.10;;;10.50;99.90;;;;;;4988816;28;20042;-35
2022/10/08 04:01:06;;;;;;;6.57;1.42;;;10.60;99.90;;;;;;4979108;28;20504;-35
2022/10/08 04:03:32;;;;;;;6.07;1.00;;;10.60;99.90;;;;;;4984176;28;20085;-35
2022/10/08 04:05:59;;;;;;;6.18;1.00;;;10.60;99.90;;;;;;4988322;28;20547;-36
2022/10/08 04:08:25;;;;;;;4.03;1.42;;;10.60;99.90;;;;;;4984241;28;20067;-35
2022/10/08 04:10:51;;;;;;;8.07;1.58;;;10.70;99.90;;;;;;4990304;28;20074;-35
2022/10/08 04:13:17;;;;;;;5.05;1.02;;;10.70;99.90;;;;;;4986610;28;20380;-35
2022/10/08 04:15:43;;;;;;;6.28;1.50;;;10.70;99.90;;;;;;4972900;28;20121;-35
2022/10/08 04:18:12;;;;;;;9.35;1.70;;;10.80;99.90;;;;;;4991755;28;20046;-35
2022/10/08 04:20:39;;;;;;;4.05;1.02;;;10.80;99.90;;;;;;4986819;28;20065;-35
2022/10/08 04:23:06;;;;;;;4.03;1.08;;;10.80;99.90;;;;;;4985718;28;20079;-36
2022/10/08 04:25:32;;;;;;;4.40;1.08;;;10.80;99.90;;;;;;4987139;28;20068;-38
2022/10/08 04:27:58;;;;;;;5.70;1.15;;;10.80;99.90;;;;;;4988489;28;20040;-35
2022/10/08 04:30:23;;;;;;;7.25;1.20;;;10.80;99.90;;;;;;4987236;28;20061;-35
2022/10/08 04:32:49;;;;;;;9.43;1.48;;;10.80;99.90;;;;;;4986408;28;20240;-35
2022/10/08 04:35:15;;;;;;;7.05;1.02;;;10.80;99.90;;;;;;4985697;28;20042;-36
2022/10/08 04:37:41;;;;;;;6.05;1.48;;;10.80;99.90;;;;;;4987424;28;20044;-48
2022/10/08 04:40:07;;;;;;;5.15;1.10;;;10.70;99.90;;;;;;4988444;28;20483;-36
2022/10/08 04:42:33;;;;;;;8.27;1.27;;;10.70;99.90;;;;;;4988954;28;20413;-36
2022/10/08 04:44:59;;;;;;;3.83;1.10;;;10.70;99.90;;;;;;4972449;28;20046;-36
2022/10/08 04:47:24;;;;;;;6.93;1.20;;;10.60;99.90;;;;;;4982207;28;20543;-36
2022/10/08 04:49:50;;;;;;;5.75;2.17;;;10.70;99.90;;;;;;4989097;28;20538;-35
2022/10/08 04:52:17;;;;;;;5.47;1.30;;;10.60;99.90;;;;;;4983052;28;20038;-36
2022/10/08 04:54:43;;;;;;;7.35;1.40;;;10.60;99.90;;;;;;4991552;28;20030;-35
2022/10/08 04:57:09;;;;;;;10.77;1.15;;;10.60;99.90;;;;;;4986851;28;20047;-36
2022/10/08 04:59:35;;;;;;;6.88;1.13;;;10.60;99.90;;;;;;4986895;28;20042;-36
2022/10/08 05:02:01;;;;;;;3.72;1.00;;;10.60;99.90;;;;;;4987105;28;20385;-36
2022/10/08 05:04:26;;;;;;;4.95;0.95;;;10.60;99.90;;;;;;4987455;28;20081;-36
2022/10/08 05:06:52;;;;;;;4.97;1.05;;;10.60;99.90;;;;;;4982719;28;20129;-36
2022/10/08 05:09:18;;;;;;;4.65;1.00;;;10.60;99.90;;;;;;4983686;28;20044;-36
2022/10/08 05:11:43;;;;;;;2.38;0.88;;;10.50;99.90;;;;;;4986439;28;20034;-36
2022/10/08 05:14:09;;;;;;;4.78;1.23;;;10.50;99.90;;;;;;4984343;28;20062;-37
2022/10/08 05:16:35;;;;;;;5.28;1.20;;;10.50;99.90;;;;;;4986187;28;20042;-36
2022/10/08 05:19:02;;;;;;;5.32;1.90;;;10.40;99.90;;;;;;4989323;28;20385;-36
2022/10/08 05:21:30;;;;;;;5.60;1.63;;;10.40;99.90;;;;;;4991367;28;20570;-36
2022/10/08 05:24:00;;;;;;;3.78;1.85;;;10.40;99.90;;;;;;4987649;28;20038;-36
2022/10/08 05:26:30;;;;;;;5.32;1.65;;;10.40;99.90;;;;;;4986094;28;20050;-36
2022/10/08 05:28:58;;;;;;;7.95;1.65;;;10.30;99.90;;;;;;4985202;28;20451;-36
2022/10/08 05:31:25;;;;;;;4.75;1.52;;;10.30;99.90;;;;;;4984226;28;20057;-36
2022/10/08 05:33:52;;;;;;;5.50;1.70;;;10.30;99.90;;;;;;4987951;28;20038;-36
2022/10/08 05:36:20;;;;;;;6.60;1.95;;;10.30;99.90;;;;;;4987726;28;20096;-36
2022/10/08 05:38:46;;;;;;;6.00;1.55;;;10.30;99.90;;;;;;4987140;28;20125;-36
2022/10/08 05:41:20;;;;;;;7.22;1.67;;;10.20;99.90;;;;;;4984686;28;20038;-36
2022/10/08 05:43:47;;;;;;;7.10;1.67;;;10.20;99.90;;;;;;4990603;28;20317;-36
2022/10/08 05:46:13;;;;;;;5.22;1.65;;;10.20;99.90;;;;;;4986275;28;20057;-36
2022/10/08 05:48:39;;;;;;;7.55;1.75;;;10.20;99.90;;;;;;4969335;28;20057;-36
2022/10/08 05:51:05;;;;;;;8.88;1.55;;;10.10;99.90;;;;;;4984444;28;20141;-36
2022/10/08 05:53:34;;;;;;;8.60;1.85;;;10.10;99.90;;;;;;4988897;28;20524;-35
2022/10/08 05:56:02;;;;;;;5.07;1.25;;;10.10;99.90;;;;;;4987278;28;20100;-36
2022/10/08 05:58:28;;;;;;;5.32;1.38;;;10.10;99.90;;;;;;4985090;28;20369;-35
2022/10/08 06:01:06;;;;;;;4.90;1.45;;;10.10;99.90;;;;;;4970102;28;20046;-36
2022/10/08 06:03:32;;;;;;;6.28;1.85;;;10.00;99.90;;;;;;4989167;28;20037;-35
2022/10/08 06:06:07;;;;;;;5.85;2.28;;;10.00;99.90;;;;;;4983660;28;20039;-34
2022/10/08 06:08:34;;;;;;;7.18;2.05;;;9.90;99.90;;;;;;4987177;28;20041;-35
2022/10/08 06:11:00;;;;;;;6.63;1.90;;;9.90;99.90;;;;;;4985838;28;20042;-36
2022/10/08 06:13:26;;;;;;;3.45;1.40;;;9.90;99.90;;;;;;4988612;28;20050;-35
2022/10/08 06:16:02;;;;;;;9.13;2.05;;;9.90;99.90;;;;;;4986505;28;20562;-35
2022/10/08 06:18:30;;;;;;;6.47;1.70;;;9.90;99.90;;;;;;4983716;28;20038;-36
2022/10/08 06:20:56;;;;;;;4.80;2.08;;;9.90;99.90;;;;;;4984351;28;20034;-34
2022/10/08 06:23:23;;;;;;;6.95;1.77;;;9.90;99.90;;;;;;4988264;28;20054;-35
2022/10/08 06:25:49;;;;;;;6.88;2.00;;;10.00;99.90;;;;;;4985786;28;20444;-35
2022/10/08 06:28:15;;;;;;;6.30;1.70;;;10.10;99.90;;;;;;4982697;28;20061;-36
2022/10/08 06:30:42;;;;;;;5.07;1.73;;;10.10;99.90;;;;;;4980958;28;20050;-35
2022/10/08 06:33:08;;;;;;;8.70;2.10;;;10.20;99.90;;;;;;4987590;28;20030;-35
2022/10/08 06:35:35;;;;;;;7.68;1.85;;;10.20;99.90;;;;;;4979002;28;20041;-36
2022/10/08 06:38:01;;;;;;;9.88;2.47;;;10.30;99.90;;;;;;4986698;28;20038;-35
2022/10/08 06:40:30;;;;;;;6.15;2.00;;;10.30;99.90;;;;;;4980985;28;20046;-36
2022/10/08 06:42:55;;;;;;;7.05;1.60;;;10.30;99.90;;;;;;4985200;28;20139;-35
2022/10/08 06:45:21;;;;;;;6.32;2.10;;;10.30;99.90;;;;;;4990988;28;20515;-36
2022/10/08 06:47:49;;;;;;;6.95;2.13;;;10.30;99.90;;;;;;4987094;28;20587;-35
2022/10/08 06:50:15;;;;;;;6.72;1.70;;;10.40;99.90;;;;;;4980286;28;20042;-35
2022/10/08 06:52:40;;;;;;;7.30;1.73;;;10.50;99.90;;;;;;4984049;28;20061;-36
2022/10/08 06:55:06;;;;;;;6.60;1.50;;;10.50;99.90;;;;;;4991021;28;20038;-34
2022/10/08 06:57:32;;;;;;;7.03;1.60;;;10.70;99.90;;;;;;4985944;28;20487;-35
2022/10/08 06:59:57;;;;;;;7.78;1.27;;;10.70;99.90;;;;;;4987601;28;20053;-36
2022/10/08 07:02:24;;;;;;;6.40;1.38;;;10.80;99.90;;;;;;4983694;28;20031;-38
2022/10/08 07:04:49;;;;;;;4.20;1.20;;;11.00;99.90;;;;;;4987873;28;20053;-37
2022/10/08 07:07:15;;;;;;;7.43;1.48;;;11.10;99.90;;;;;;4986363;28;20042;-37
2022/10/08 07:09:41;;;;;;;8.50;1.48;;;11.20;99.90;;;;;;4986628;28;20062;-38
2022/10/08 07:12:06;;;;;;;4.57;1.63;;;11.20;99.90;;;;;;4987984;28;20093;-38
2022/10/08 07:14:32;;;;;;;5.60;1.20;;;11.30;99.90;;;;;;4982088;28;20045;-39
2022/10/08 07:16:57;;;;;;;7.78;1.60;;;11.40;99.90;;;;;;4979352;28;20044;-37
2022/10/08 07:19:23;;;;;;;5.70;0.98;;;11.50;99.90;;;;;;4986384;28;20125;-39
2022/10/08 07:21:49;;;;;;;6.75;1.00;;;11.50;99.90;;;;;;4986588;28;20058;-38
2022/10/08 07:24:14;;;;;;;6.45;2.20;;;11.50;99.90;;;;;;4992165;28;20050;-38
2022/10/08 07:26:40;;;;;;;9.90;1.10;;;11.50;99.90;;;;;;4993523;28;20061;-39
2022/10/08 07:29:11;;;;;;;7.45;1.10;;;11.50;99.90;;;;;;4990452;28;20840;-38
2022/10/08 07:31:38;;;;;;;4.65;0.63;;;11.50;99.90;;;;;;4974821;28;20038;-39
2022/10/08 07:34:07;;;;;;;7.65;0.93;;;11.50;99.90;;;;;;4991045;28;20105;-38
2022/10/08 07:36:33;;;;;;;13.38;1.75;;;11.50;99.90;;;;;;4987156;28;20121;-47
2022/10/08 07:39:04;;;;;;;4.60;0.93;;;11.60;99.90;;;;;;4991640;28;20121;-38
2022/10/08 07:41:30;;;;;;;4.38;0.52;;;11.60;99.90;;;;;;4987721;28;20049;-37
2022/10/08 07:43:58;;;;;;;14.98;1.20;;;11.70;99.90;;;;;;4991280;28;20034;-38
2022/10/08 07:46:28;;;;;;;5.10;0.60;;;11.80;99.90;;;;;;4988940;28;20050;-38
2022/10/08 07:48:57;;;;;;;5.32;1.23;;;11.80;99.90;;;;;;4989736;28;20038;-37
2022/10/08 07:51:24;;;;;;;4.03;0.80;;;11.90;99.90;;;;;;4987246;28;20565;-39
2022/10/08 07:53:50;;;;;;;3.50;0.70;;;12.00;99.90;;;;;;4989151;28;20571;-36
2022/10/08 07:56:17;;;;;;;5.00;0.63;;;12.10;99.90;;;;;;4978728;28;20042;-38
2022/10/08 07:58:43;;;;;;;6.43;0.60;;;12.10;99.90;;;;;;4991135;28;20121;-38
2022/10/08 08:01:12;;;;;;;7.68;0.80;;;12.20;99.90;;;;;;4968955;28;20077;-39
2022/10/08 08:03:38;;;;;;;3.20;0.63;;;12.30;99.90;;;;;;4983827;28;20043;-37
2022/10/08 08:06:08;;;;;;;6.82;0.75;;;12.30;99.90;;;;;;4984415;28;20825;-38
2022/10/08 08:08:36;;;;;;;5.60;0.73;;;12.40;99.90;;;;;;4982476;28;20504;-38
2022/10/08 08:11:03;;;;;;;9.30;0.68;;;12.50;99.90;;;;;;4990408;28;20034;-38
2022/10/08 08:13:30;;;;;;;7.78;1.10;;;12.60;99.90;;;;;;4989395;28;20121;-39
2022/10/08 08:16:07;;;;;;;10.70;0.60;;;12.60;99.90;;;;;;4988831;28;20042;-39
2022/10/08 08:18:37;;;;;;;3.03;0.32;;;12.70;99.90;;;;;;4982303;28;20039;-39
2022/10/08 08:21:14;;;;;;;6.05;0.70;;;12.70;99.90;;;;;;4986915;28;20038;-39
2022/10/08 08:23:46;;;;;;;3.92;0.60;;;12.80;99.90;;;;;;4989775;28;20057;-39
2022/10/08 08:26:16;;;;;;;3.42;0.70;;;12.90;99.90;;;;;;4988802;28;20045;-41
2022/10/08 08:28:42;;;;;;;4.75;0.50;;;12.90;99.90;;;;;;4988958;28;20035;-39
2022/10/08 08:31:15;;;;;;;5.90;0.40;;;13.00;99.90;;;;;;4990651;28;20445;-39
2022/10/08 08:33:45;;;;;;;5.13;0.43;;;13.00;99.90;;;;;;4986855;28;20042;-38
2022/10/08 08:36:11;;;;;;;4.82;0.50;;;13.10;99.90;;;;;;4988565;28;20549;-39
2022/10/08 08:38:37;;;;;;;5.57;0.73;;;13.20;99.90;;;;;;4968708;28;20050;-40
2022/10/08 08:41:28;;;;;;;4.43;0.40;;;13.20;99.90;;;;;;4988678;28;20057;-39
2022/10/08 08:44:07;;;;;;;3.67;0.60;;;13.30;99.90;;;;;;4988300;28;20190;-38
2022/10/08 08:46:39;;;;;;;4.88;0.70;;;13.40;99.90;;;;;;4989098;28;20038;-39
2022/10/08 08:49:17;;;;;;;3.80;0.45;;;13.40;99.90;;;;;;4986559;28;20149;-38
2022/10/08 08:51:43;;;;;;;3.13;0.32;;;13.30;99.90;;;;;;4986110;28;20495;-39
2022/10/08 08:54:09;;;;;;;3.70;0.38;;;13.30;99.90;;;;;;4990368;28;20096;-38
2022/10/08 08:56:35;;;;;;;2.03;0.77;;;13.40;99.90;;;;;;4981284;28;20050;-37
2022/10/08 08:59:24;;;;;;;5.72;0.73;;;13.50;99.90;;;;;;4986997;28;20046;-38
2022/10/08 09:01:53;;;;;;;5.93;0.63;;;13.50;99.90;;;;;;4984079;28;20030;-38
2022/10/08 09:04:35;;;;;;;5.35;0.68;;;13.60;99.90;;;;;;4990497;28;20137;-38
2022/10/08 09:07:05;;;;;;;5.75;0.50;;;13.70;99.90;;;;;;4982701;28;20058;-38
2022/10/08 09:09:42;;;;;;;3.25;0.40;;;13.70;99.90;;;;;;4982560;28;20070;-38
2022/10/08 09:12:28;;;;;;;6.97;0.50;;;13.80;99.90;;;;;;4963734;28;20133;-37
2022/10/08 09:14:57;;;;;;;3.95;0.55;;;13.80;99.90;;;;;;4984881;28;20038;-38
2022/10/08 09:17:28;;;;;;;6.88;0.50;;;13.90;99.90;;;;;;4989827;28;20034;-38
2022/10/08 09:19:53;;;;;;;2.95;0.40;;;14.00;99.90;;;;;;4986165;28;20049;-38
2022/10/08 09:22:35;;;;;;;3.05;0.60;;;14.00;99.90;;;;;;4987333;28;20519;-38
2022/10/08 09:25:22;;;;;;;2.72;0.40;;;14.10;99.90;;;;;;4984878;28;20046;-38
2022/10/08 09:27:57;;;;;;;2.80;0.30;;;14.20;99.90;;;;;;4986402;28;20057;-38
2022/10/08 09:30:32;;;;;;;5.95;0.50;;;14.30;99.90;;;;;;4987274;28;20042;-39
2022/10/08 09:33:03;;;;;;;4.00;0.65;;;14.40;99.10;;;;;;4981381;28;20047;-39
2022/10/08 09:35:32;;;;;;;4.28;0.55;;;14.40;99.90;;;;;;4982585;28;20046;-39
2022/10/08 09:37:58;;;;;;;5.55;0.70;;;14.50;99.90;;;;;;4984265;28;20125;-38
2022/10/08 09:40:26;;;;;;;5.25;0.60;;;14.60;99.90;;;;;;4985665;28;20046;-37
2022/10/08 09:43:16;;;;;;;4.10;0.45;;;14.70;99.10;;;;;;4989183;28;20089;-38
2022/10/08 09:45:44;;;;;;;4.60;0.70;;;14.60;97.60;;;;;;4989531;28;20062;-38
2022/10/08 09:48:23;;;;;;;3.33;0.43;;;14.60;98.30;;;;;;4986870;28;20109;-38
2022/10/08 09:50:52;;;;;;;5.25;0.80;;;14.60;98.40;;;;;;4984540;28;20050;-39
2022/10/08 09:53:21;;;;;;;3.22;0.40;;;14.60;97.70;;;;;;4985766;28;20038;-39
2022/10/08 09:56:03;;;;;;;3.88;0.30;;;14.60;97.20;;;;;;4981941;28;20081;-38
2022/10/08 09:58:32;;;;;;;7.57;0.50;;;14.60;96.80;;;;;;4967988;28;20049;-37
2022/10/08 10:01:18;;;;;;;6.38;0.45;;;14.70;97.10;;;;;;4985057;28;20050;-37
2022/10/08 10:04:15;;;;;;;8.07;0.68;;;14.80;97.10;;;;;;4981557;28;20053;-36
2022/10/08 10:06:45;;;;;;;7.05;0.65;;;15.00;97.50;;;;;;4946286;28;20502;-38
2022/10/08 10:09:10;;;;;;;6.47;0.80;;;15.20;97.20;;;;;;4987643;28;20553;-37
2022/10/08 10:11:40;;;;;;;3.83;0.60;;;15.40;96.50;;;;;;4989374;28;20112;-36
2022/10/08 10:14:19;;;;;;;4.35;0.70;;;15.50;96.30;;;;;;4985981;28;20046;-36
2022/10/08 10:16:49;;;;;;;3.22;0.40;;;15.60;95.40;;;;;;4987118;28;20038;-38
2022/10/08 10:19:31;;;;;;;3.72;0.55;;;15.60;94.90;;;;;;4983344;28;20373;-37
2022/10/08 10:22:12;;;;;;;3.83;0.43;;;15.20;92.40;;;;;;4982480;28;20086;-37
2022/10/08 10:24:37;;;;;;;4.70;0.73;;;14.80;93.80;;;;;;4984895;28;20046;-37
2022/10/08 10:27:23;;;;;;;7.90;0.50;;;14.60;94.30;;;;;;4961166;28;20495;-37
2022/10/08 10:30:13;;;;;;;2.78;0.30;;;14.80;94.90;;;;;;4982753;28;20074;-38
2022/10/08 10:32:50;;;;;;;4.38;0.68;;;15.10;93.40;;;;;;4988684;28;20050;-37
2022/10/08 10:35:27;;;;;;;5.15;0.47;;;15.30;91.60;;;;;;4989085;28;20515;-38
2022/10/08 10:38:05;;;;;;;5.75;0.50;;;15.40;91.20;;;;;;4985117;28;20073;-35
2022/10/08 10:40:33;;;;;;;4.30;0.20;;;15.60;91.40;;;;;;4986403;28;20121;-37
2022/10/08 10:43:11;;;;;;;3.83;0.40;;;15.70;91.60;;;;;;4986776;28;20080;-37
2022/10/08 10:45:38;;;;;;;5.10;0.50;;;16.00;91.00;;;;;;4987470;28;20115;-37
2022/10/08 10:48:07;;;;;;;8.40;0.75;;;16.10;91.30;;;;;;4978560;28;20043;-38
2022/10/08 10:50:38;;;;;;;4.97;0.35;;;16.20;89.50;;;;;;4985371;28;20038;-37
2022/10/08 10:53:49;;;;;;;3.60;0.93;;;16.10;88.20;;;;;;4984624;28;20117;-38
2022/10/08 10:56:19;;;;;;;5.97;0.50;;;16.00;85.70;;;;;;4981775;28;20049;-37
2022/10/08 10:59:04;;;;;;;5.85;0.52;;;15.80;87.30;;;;;;4982077;28;20038;-38
2022/10/08 11:01:44;;;;;;;5.05;0.40;;;15.50;88.30;;;;;;4988781;28;20038;-39
2022/10/08 11:04:48;;;;;;;9.23;0.60;;;15.10;85.00;;;;;;4990635;28;20125;-38
2022/10/08 11:07:25;;;;;;;10.02;0.73;;;15.00;87.90;;;;;;4985501;28;20089;-39
2022/10/08 11:10:19;;;;;;;4.30;0.40;;;15.10;89.90;;;;;;4986377;28;20439;-38
2022/10/08 11:13:26;;;;;;;2.90;0.70;;;15.10;90.50;;;;;;4986764;28;20038;-37
2022/10/08 11:16:08;;;;;;;3.50;0.35;;;15.40;86.80;;;;;;4893021;29;20076;-38
2022/10/08 11:18:49;;;;;;;3.25;0.35;;;15.50;90.00;;;;;;4981793;28;20062;-39
2022/10/08 11:21:30;;;;;;;7.88;0.40;;;15.60;88.40;;;;;;4995376;28;20488;-38
2022/10/08 11:24:07;;;;;;;5.20;0.40;;;15.70;86.60;;;;;;4989350;28;20042;-37
2022/10/08 11:26:42;;;;;;;7.10;0.50;;;15.80;79.10;;;;;;4981261;28;20047;-40
2022/10/08 11:29:33;;;;;;;4.82;0.60;;;15.80;78.50;;;;;;4984776;28;20514;-46
2022/10/08 11:31:59;;;;;;;4.32;0.85;;;15.90;78.90;;;;;;4981727;28;20125;-38
2022/10/08 11:34:35;;;;;;;7.13;0.45;;;15.90;77.20;;;;;;4988414;28;20037;-38
2022/10/08 11:37:25;;;;;;;3.78;0.32;;;16.00;76.10;;;;;;4982834;28;20042;-38
2022/10/08 11:40:45;;;;;;;4.15;0.40;;;16.00;75.40;;;;;;4989113;28;20129;-38
2022/10/08 11:43:39;;;;;;;5.15;0.95;;;16.10;73.70;;;;;;4971429;28;20126;-38
2022/10/08 11:46:31;;;;;;;4.50;0.30;;;16.20;74.90;;;;;;4982266;28;20046;-38
2022/10/08 11:49:10;;;;;;;4.07;0.40;;;16.40;73.20;;;;;;4984909;28;20567;-38
2022/10/08 11:51:44;;;;;;;4.72;0.40;;;16.60;75.40;;;;;;4986520;28;20038;-38
2022/10/08 11:54:37;;;;;;;5.07;0.25;;;17.00;72.60;;;;;;4984148;28;20436;-38
2022/10/08 11:59:45;;;;;;;3.08;0.40;;;17.40;66.00;;;;;;5065379;22;20061;-85
2022/10/08 12:02:24;;;;;;;2.15;0.28;;;17.70;65.90;;;;;;4979101;28;20096;-85
2022/10/08 12:04:53;;;;;;;3.20;0.40;;;17.80;64.00;;;;;;5486157;23;20278;-35
2022/10/08 12:07:33;;;;;;;2.38;0.45;;;18.10;65.40;;;;;;4961510;23;20059;-35
2022/10/08 12:10:04;;;;;;;2.85;0.32;;;18.20;62.40;;;;;;4947277;28;20130;-37
2022/10/08 12:12:48;;;;;;;3.72;0.30;;;18.30;61.40;;;;;;4938807;28;20052;-36
2022/10/08 12:15:23;;;;;;;4.30;0.55;;;18.40;59.80;;;;;;4947933;28;20070;-36
2022/10/08 12:17:57;;;;;;;4.38;0.28;;;18.60;59.40;;;;;;4946660;28;20046;-36
2022/10/08 12:20:36;;;;;;;6.47;0.30;;;18.80;60.70;;;;;;4939286;29;20048;-36
2022/10/08 12:23:21;;;;;;;6.65;0.68;;;19.10;58.20;;;;;;4945767;28;20040;-36
2022/10/08 12:25:48;;;;;;;3.25;0.40;;;19.20;57.20;;;;;;4933330;29;20130;-35
2022/10/08 12:28:19;;;;;;;5.22;0.50;;;19.50;57.10;;;;;;4938878;28;20083;-35
2022/10/08 12:31:00;;;;;;;5.00;0.50;;;19.70;56.80;;;;;;4939804;28;20052;-36
2022/10/08 12:33:27;;;;;;;4.57;0.50;;;20.10;55.10;;;;;;4937324;28;20395;-35
2022/10/08 12:35:55;;;;;;;2.45;0.40;;;20.00;54.00;;;;;;4938031;28;20043;-35
2022/10/08 12:38:49;;;;;;;5.50;0.57;;;20.20;55.40;;;;;;4945012;28;20113;-35
2022/10/08 12:41:48;;;;;;;3.30;0.35;;;20.40;53.40;;;;;;4946332;28;20088;-35
2022/10/08 12:44:43;;;;;;;3.28;0.68;;;20.50;53.50;;;;;;4943502;28;20061;-35
2022/10/08 12:47:19;;;;;;;3.13;0.52;;;20.60;54.40;;;;;;4942210;28;20052;-35
2022/10/08 12:50:18;;;;;;;6.13;0.60;;;20.90;54.10;;;;;;4943713;29;20049;-36
2022/10/08 12:52:45;;;;;;;3.60;0.50;;;21.40;53.10;;;;;;4943135;28;20552;-36
2022/10/08 12:55:16;;;;;;;4.38;0.68;;;21.80;53.10;;;;;;4935663;28;20047;-36
2022/10/08 12:57:42;;;;;;;6.55;0.60;;;21.90;50.80;;;;;;4951371;28;20150;-39
2022/10/08 13:00:29;;;;;;;2.60;0.32;;;21.70;51.40;;;;;;4946546;28;20542;-35
2022/10/08 13:03:03;;;;;;;4.85;0.90;;;21.40;49.60;;;;;;4937366;28;20499;-35
2022/10/08 13:05:29;;;;;;;4.05;0.60;;;21.60;49.70;;;;;;4948474;28;20051;-35
2022/10/08 13:07:55;;;;;;;3.47;0.50;;;21.40;50.70;;;;;;4949316;28;20047;-35
2022/10/08 13:10:25;;;;;;;5.82;0.60;;;20.80;51.40;;;;;;4939206;28;20040;-35
2022/10/08 13:13:22;;;;;;;5.72;1.00;;;20.60;53.10;;;;;;4946428;28;20066;-35
2022/10/08 13:15:58;;;;;;;2.55;0.55;;;21.20;51.00;;;;;;4947105;28;20042;-35
2022/10/08 13:18:24;;;;;;;4.57;0.75;;;21.50;51.70;;;;;;4938131;28;20047;-35